sensor_id;sensor_type;location;lat;lon;timestamp;temperature;humidity
27779;DHT22;30234;48.090;11.464;2022-07-06T00:02:30;17.50;99.90
27779;DHT22;30234;48.090;11.464;2022-07-06T00:06:31;17.60;99.90
27779;DHT22;30234;48.090;11.464;2022-07-06T00:10:32;17.60;99.90
27779;DHT22;30234;48.090;11.464;2022-07-06T00:14:33;17.50;99.90
27779;DHT22;30234;48.090;11.464;2022-07-06T00:18:34;17.30;99.90
27779;DHT22;30234;48.090;11.464;2022-07-06T00:22:35;17.00;99.90
27779;DHT22;30234;48.090;11.464;2022-07-06T00:26:36;16.80;99.90
27779;DHT22;30234;48.090;11.464;2022-07-06T00:30:37;16.50;99.90
27779;DHT22;30234;48.090;11.464;2022-07-06T00:34:38;16.30;99.90
27779;DHT22;30234;48.090;11.464;2022-07-06T00:38:41;16.10;99.90
27779;DHT22;30234;48.090;11.464;2022-07-06T00:42:44;15.90;99.90
27779;DHT22;30234;48.090;11.464;2022-07-06T00:46:46;15.90;99.90
27779;DHT22;30234;48.090;11.464;2022-07-06T00:50:47;15.80;99.90
27779;DHT22;30234;48.090;11.464;2022-07-06T00:54:48;16.00;99.90
27779;DHT22;30234;48.090;11.464;2022-07-06T00:58:48;16.20;99.90
27779;DHT22;30234;48.090;11.464;2022-07-06T01:02:50;16.30;99.90
27779;DHT22;30234;48.090;11.464;2022-07-06T01:06:51;16.60;99.90
27779;DHT22;30234;48.090;11.464;2022-07-06T01:10:51;16.70;99.90
27779;DHT22;30234;48.090;11.464;2022-07-06T01:14:53;16.70;99.90
27779;DHT22;30234;48.090;11.464;2022-07-06T01:18:53;16.70;99.90
27779;DHT22;30234;48.090;11.464;2022-07-06T01:22:54;16.50;99.90
27779;DHT22;30234;48.090;11.464;2022-07-06T01:26:58;16.20;99.90
27779;DHT22;30234;48.090;11.464;2022-07-06T01:30:59;15.80;99.90
27779;DHT22;30234;48.090;11.464;2022-07-06T01:35:00;15.60;99.90
27779;DHT22;30234;48.090;11.464;2022-07-06T01:39:01;15.70;99.90
27779;DHT22;30234;48.090;11.464;2022-07-06T01:43:02;15.70;99.90
27779;DHT22;30234;48.090;11.464;2022-07-06T01:47:02;15.50;99.90
27779;DHT22;30234;48.090;11.464;2022-07-06T01:51:04;15.50;99.90
27779;DHT22;30234;48.090;11.464;2022-07-06T01:55:05;15.60;99.90
27779;DHT22;30234;48.090;11.464;2022-07-06T01:59:06;15.70;99.90
27779;DHT22;30234;48.090;11.464;2022-07-06T02:03:07;15.60;99.90
27779;DHT22;30234;48.090;11.464;2022-07-06T02:07:08;15.60;99.90
27779;DHT22;30234;48.090;11.464;2022-07-06T02:11:10;15.60;99.90
27779;DHT22;30234;48.090;11.464;2022-07-06T02:15:11;15.40;99.90
27779;DHT22;30234;48.090;11.464;2022-07-06T02:19:11;15.30;99.90
27779;DHT22;30234;48.090;11.464;2022-07-06T02:23:12;15.00;99.90
27779;DHT22;30234;48.090;11.464;2022-07-06T02:27:13;14.90;99.90
27779;DHT22;30234;48.090;11.464;2022-07-06T02:31:14;14.80;99.90
27779;DHT22;30234;48.090;11.464;2022-07-06T02:35:15;14.60;99.90
27779;DHT22;30234;48.090;11.464;2022-07-06T02:39:16;14.50;99.90
27779;DHT22;30234;48.090;11.464;2022-07-06T02:43:17;14.50;99.90
27779;DHT22;30234;48.090;11.464;2022-07-06T02:47:17;14.30;99.90
27779;DHT22;30234;48.090;11.464;2022-07-06T02:51:18;14.10;99.90
27779;DHT22;30234;48.090;11.464;2022-07-06T02:55:19;13.90;99.90
27779;DHT22;30234;48.090;11.464;2022-07-06T02:59:20;13.70;99.90
27779;DHT22;30234;48.090;11.464;2022-07-06T03:03:21;13.80;99.90
27779;DHT22;30234;48.090;11.464;2022-07-06T03:07:21;13.80;99.90
27779;DHT22;30234;48.090;11.464;2022-07-06T03:11:22;13.80;99.90
27779;DHT22;30234;48.090;11.464;2022-07-06T03:15:23;13.80;99.90
27779;DHT22;30234;48.090;11.464;2022-07-06T03:19:24;13.80;99.90
27779;DHT22;30234;48.090;11.464;2022-07-06T03:23:24;13.80;99.90
27779;DHT22;30234;48.090;11.464;2022-07-06T03:27:25;13.80;99.90
27779;DHT22;30234;48.090;11.464;2022-07-06T03:31:26;13.80;99.90
27779;DHT22;30234;48.090;11.464;2022-07-06T03:35:27;13.80;99.90
27779;DHT22;30234;48.090;11.464;2022-07-06T03:39:28;13.90;99.90
27779;DHT22;30234;48.090;11.464;2022-07-06T03:43:29;14.00;99.90
27779;DHT22;30234;48.090;11.464;2022-07-06T03:47:30;14.00;99.90
27779;DHT22;30234;48.090;11.464;2022-07-06T03:51:31;14.00;99.90
27779;DHT22;30234;48.090;11.464;2022-07-06T03:55:32;14.00;99.90
27779;DHT22;30234;48.090;11.464;2022-07-06T03:59:32;14.00;99.90
27779;DHT22;30234;48.090;11.464;2022-07-06T04:03:33;14.20;99.90
27779;DHT22;30234;48.090;11.464;2022-07-06T04:07:34;14.30;99.90
27779;DHT22;30234;48.090;11.464;2022-07-06T04:11:35;14.50;99.90
27779;DHT22;30234;48.090;11.464;2022-07-06T04:15:36;14.60;99.90
27779;DHT22;30234;48.090;11.464;2022-07-06T04:19:36;14.70;99.90
27779;DHT22;30234;48.090;11.464;2022-07-06T04:23:37;15.00;99.90
27779;DHT22;30234;48.090;11.464;2022-07-06T04:27:38;15.50;99.90
27779;DHT22;30234;48.090;11.464;2022-07-06T04:31:39;15.90;99.90
27779;DHT22;30234;48.090;11.464;2022-07-06T04:35:40;16.10;99.90
27779;DHT22;30234;48.090;11.464;2022-07-06T04:39:41;16.20;99.90
27779;DHT22;30234;48.090;11.464;2022-07-06T04:43:41;16.70;99.90
27779;DHT22;30234;48.090;11.464;2022-07-06T04:47:44;17.20;99.90
27779;DHT22;30234;48.090;11.464;2022-07-06T04:51:45;17.40;99.90
27779;DHT22;30234;48.090;11.464;2022-07-06T04:55:45;17.50;99.90
27779;DHT22;30234;48.090;11.464;2022-07-06T04:59:46;17.90;99.90
27779;DHT22;30234;48.090;11.464;2022-07-06T05:03:47;19.70;99.90
27779;DHT22;30234;48.090;11.464;2022-07-06T05:07:48;24.30;99.90
27779;DHT22;30234;48.090;11.464;2022-07-06T05:11:48;26.10;99.90
27779;DHT22;30234;48.090;11.464;2022-07-06T05:15:49;27.30;99.90
27779;DHT22;30234;48.090;11.464;2022-07-06T05:19:50;27.20;98.70
27779;DHT22;30234;48.090;11.464;2022-07-06T05:23:51;27.00;96.40
27779;DHT22;30234;48.090;11.464;2022-07-06T05:27:52;28.40;93.40
27779;DHT22;30234;48.090;11.464;2022-07-06T05:31:52;27.20;91.40
27779;DHT22;30234;48.090;11.464;2022-07-06T05:35:53;24.80;94.20
27779;DHT22;30234;48.090;11.464;2022-07-06T05:39:54;22.70;98.00
27779;DHT22;30234;48.090;11.464;2022-07-06T05:43:55;23.20;99.90
27779;DHT22;30234;48.090;11.464;2022-07-06T05:47:56;25.90;96.80
27779;DHT22;30234;48.090;11.464;2022-07-06T05:52:15;27.80;93.90
27779;DHT22;30234;48.090;11.464;2022-07-06T05:56:16;30.00;89.00
27779;DHT22;30234;48.090;11.464;2022-07-06T06:00:17;30.00;82.60
27779;DHT22;30234;48.090;11.464;2022-07-06T06:04:18;28.40;83.70
27779;DHT22;30234;48.090;11.464;2022-07-06T06:08:22;29.20;83.80
27779;DHT22;30234;48.090;11.464;2022-07-06T06:12:22;28.70;82.60
27779;DHT22;30234;48.090;11.464;2022-07-06T06:16:23;29.80;80.70
27779;DHT22;30234;48.090;11.464;2022-07-06T06:20:24;30.30;77.00
27779;DHT22;30234;48.090;11.464;2022-07-06T06:24:25;31.20;73.30
27779;DHT22;30234;48.090;11.464;2022-07-06T06:28:28;32.40;69.10
27779;DHT22;30234;48.090;11.464;2022-07-06T06:32:29;32.90;65.10
27779;DHT22;30234;48.090;11.464;2022-07-06T06:36:30;32.50;61.60
27779;DHT22;30234;48.090;11.464;2022-07-06T06:40:31;32.00;59.50
27779;DHT22;30234;48.090;11.464;2022-07-06T06:44:34;31.60;61.00
27779;DHT22;30234;48.090;11.464;2022-07-06T06:48:34;32.10;59.80
27779;DHT22;30234;48.090;11.464;2022-07-06T06:52:35;32.90;58.40
27779;DHT22;30234;48.090;11.464;2022-07-06T06:56:36;33.50;56.30
27779;DHT22;30234;48.090;11.464;2022-07-06T07:00:37;33.00;55.40
27779;DHT22;30234;48.090;11.464;2022-07-06T07:04:41;33.00;55.80
27779;DHT22;30234;48.090;11.464;2022-07-06T07:08:45;32.00;55.60
27779;DHT22;30234;48.090;11.464;2022-07-06T07:12:46;32.40;55.20
27779;DHT22;30234;48.090;11.464;2022-07-06T07:16:47;32.00;55.50
27779;DHT22;30234;48.090;11.464;2022-07-06T07:20:48;32.00;55.30
27779;DHT22;30234;48.090;11.464;2022-07-06T07:24:50;32.60;54.40
27779;DHT22;30234;48.090;11.464;2022-07-06T07:28:51;32.00;55.20
27779;DHT22;30234;48.090;11.464;2022-07-06T07:32:52;34.00;53.20
27779;DHT22;30234;48.090;11.464;2022-07-06T07:36:56;34.00;51.60
27779;DHT22;30234;48.090;11.464;2022-07-06T07:41:09;35.20;51.40
27779;DHT22;30234;48.090;11.464;2022-07-06T07:45:19;35.10;48.90
27779;DHT22;30234;48.090;11.464;2022-07-06T07:49:27;33.40;50.40
27779;DHT22;30234;48.090;11.464;2022-07-06T07:53:31;34.30;50.20
27779;DHT22;30234;48.090;11.464;2022-07-06T07:58:07;34.40;49.30
27779;DHT22;30234;48.090;11.464;2022-07-06T08:02:15;35.40;48.70
27779;DHT22;30234;48.090;11.464;2022-07-06T08:06:39;36.70;46.50
27779;DHT22;30234;48.090;11.464;2022-07-06T08:11:03;36.10;45.90
27779;DHT22;30234;48.090;11.464;2022-07-06T08:15:17;35.20;46.40
27779;DHT22;30234;48.090;11.464;2022-07-06T08:19:23;34.70;43.90
27779;DHT22;30234;48.090;11.464;2022-07-06T08:23:35;33.60;46.60
27779;DHT22;30234;48.090;11.464;2022-07-06T08:27:36;33.30;46.70
27779;DHT22;30234;48.090;11.464;2022-07-06T08:31:44;33.40;46.50
27779;DHT22;30234;48.090;11.464;2022-07-06T08:35:48;33.80;46.30
27779;DHT22;30234;48.090;11.464;2022-07-06T08:50:02;34.80;45.60
27779;DHT22;30234;48.090;11.464;2022-07-06T08:54:04;35.20;45.10
27779;DHT22;30234;48.090;11.464;2022-07-06T08:58:05;33.60;44.40
27779;DHT22;30234;48.090;11.464;2022-07-06T09:02:14;33.40;45.60
27779;DHT22;30234;48.090;11.464;2022-07-06T09:06:28;31.60;47.80
27779;DHT22;30234;48.090;11.464;2022-07-06T09:10:32;30.80;48.70
27779;DHT22;30234;48.090;11.464;2022-07-06T09:14:35;30.90;50.50
27779;DHT22;30234;48.090;11.464;2022-07-06T09:18:40;30.00;50.40
27779;DHT22;30234;48.090;11.464;2022-07-06T09:23:23;29.70;52.70
27779;DHT22;30234;48.090;11.464;2022-07-06T09:27:30;30.00;51.40
27779;DHT22;30234;48.090;11.464;2022-07-06T09:32:08;29.50;50.60
27779;DHT22;30234;48.090;11.464;2022-07-06T09:41:04;31.50;50.50
27779;DHT22;30234;48.090;11.464;2022-07-06T09:45:08;33.00;49.10
27779;DHT22;30234;48.090;11.464;2022-07-06T09:49:21;34.40;46.90
27779;DHT22;30234;48.090;11.464;2022-07-06T10:29:41;33.50;44.60
27779;DHT22;30234;48.090;11.464;2022-07-06T10:34:07;32.50;45.80
27779;DHT22;30234;48.090;11.464;2022-07-06T10:38:11;31.60;45.20
27779;DHT22;30234;48.090;11.464;2022-07-06T10:42:52;30.60;48.40
27779;DHT22;30234;48.090;11.464;2022-07-06T10:47:05;30.50;48.40
27779;DHT22;30234;48.090;11.464;2022-07-06T10:55:39;32.60;44.70
27779;DHT22;30234;48.090;11.464;2022-07-06T11:00:05;30.90;46.60
27779;DHT22;30234;48.090;11.464;2022-07-06T11:04:15;31.50;46.50
27779;DHT22;30234;48.090;11.464;2022-07-06T11:18:24;32.10;44.20
27779;DHT22;30234;48.090;11.464;2022-07-06T11:22:50;32.00;44.90
27779;DHT22;30234;48.090;11.464;2022-07-06T11:32:26;31.60;46.00
27779;DHT22;30234;48.090;11.464;2022-07-06T11:36:38;31.10;44.70
27779;DHT22;30234;48.090;11.464;2022-07-06T11:41:15;31.10;47.70
27779;DHT22;30234;48.090;11.464;2022-07-06T11:45:37;30.90;47.20
27779;DHT22;30234;48.090;11.464;2022-07-06T11:49:49;30.90;46.20
27779;DHT22;30234;48.090;11.464;2022-07-06T11:53:57;30.30;46.90
27779;DHT22;30234;48.090;11.464;2022-07-06T11:58:23;30.40;48.60
27779;DHT22;30234;48.090;11.464;2022-07-06T12:02:29;30.20;47.00
27779;DHT22;30234;48.090;11.464;2022-07-06T12:07:01;29.50;48.30
27779;DHT22;30234;48.090;11.464;2022-07-06T12:11:20;29.90;47.90
27779;DHT22;30234;48.090;11.464;2022-07-06T12:21:34;29.70;48.10
27779;DHT22;30234;48.090;11.464;2022-07-06T12:25:36;30.40;46.90
27779;DHT22;30234;48.090;11.464;2022-07-06T12:29:37;30.70;46.30
27779;DHT22;30234;48.090;11.464;2022-07-06T12:33:38;30.50;45.30
27779;DHT22;30234;48.090;11.464;2022-07-06T12:37:54;31.00;45.60
27779;DHT22;30234;48.090;11.464;2022-07-06T12:42:12;30.80;44.70
27779;DHT22;30234;48.090;11.464;2022-07-06T12:46:37;31.40;44.80
27779;DHT22;30234;48.090;11.464;2022-07-06T12:50:42;31.20;45.00
27779;DHT22;30234;48.090;11.464;2022-07-06T12:54:48;30.60;45.90
27779;DHT22;30234;48.090;11.464;2022-07-06T12:59:22;30.50;46.30
27779;DHT22;30234;48.090;11.464;2022-07-06T13:03:24;30.00;46.00
27779;DHT22;30234;48.090;11.464;2022-07-06T13:07:29;29.80;46.70
27779;DHT22;30234;48.090;11.464;2022-07-06T13:11:32;29.10;47.30
27779;DHT22;30234;48.090;11.464;2022-07-06T13:15:36;27.90;50.80
27779;DHT22;30234;48.090;11.464;2022-07-06T13:19:47;28.00;50.00
27779;DHT22;30234;48.090;11.464;2022-07-06T13:23:48;28.70;47.00
27779;DHT22;30234;48.090;11.464;2022-07-06T13:27:49;28.80;48.70
27779;DHT22;30234;48.090;11.464;2022-07-06T13:31:50;29.40;47.20
27779;DHT22;30234;48.090;11.464;2022-07-06T13:35:52;29.30;46.40
27779;DHT22;30234;48.090;11.464;2022-07-06T13:39:53;29.20;47.70
27779;DHT22;30234;48.090;11.464;2022-07-06T13:43:54;28.80;47.30
27779;DHT22;30234;48.090;11.464;2022-07-06T13:47:55;28.60;49.00
27779;DHT22;30234;48.090;11.464;2022-07-06T13:51:56;28.60;48.90
27779;DHT22;30234;48.090;11.464;2022-07-06T13:56:03;28.90;48.10
27779;DHT22;30234;48.090;11.464;2022-07-06T14:00:08;28.90;47.80
27779;DHT22;30234;48.090;11.464;2022-07-06T14:04:13;28.90;47.10
27779;DHT22;30234;48.090;11.464;2022-07-06T14:08:14;28.90;47.70
27779;DHT22;30234;48.090;11.464;2022-07-06T14:12:18;29.60;47.80
27779;DHT22;30234;48.090;11.464;2022-07-06T14:16:19;30.30;47.00
27779;DHT22;30234;48.090;11.464;2022-07-06T14:20:20;30.20;44.60
27779;DHT22;30234;48.090;11.464;2022-07-06T14:24:22;29.80;46.00
27779;DHT22;30234;48.090;11.464;2022-07-06T14:28:24;29.90;45.50
27779;DHT22;30234;48.090;11.464;2022-07-06T14:32:25;29.40;45.60
27779;DHT22;30234;48.090;11.464;2022-07-06T14:36:28;29.70;45.30
27779;DHT22;30234;48.090;11.464;2022-07-06T14:40:32;29.30;46.10
27779;DHT22;30234;48.090;11.464;2022-07-06T14:44:34;29.70;46.00
27779;DHT22;30234;48.090;11.464;2022-07-06T14:48:37;29.80;44.40
27779;DHT22;30234;48.090;11.464;2022-07-06T14:52:38;29.90;44.70
27779;DHT22;30234;48.090;11.464;2022-07-06T14:56:39;30.70;44.60
27779;DHT22;30234;48.090;11.464;2022-07-06T15:00:44;30.50;43.30
27779;DHT22;30234;48.090;11.464;2022-07-06T15:04:55;30.10;44.80
27779;DHT22;30234;48.090;11.464;2022-07-06T15:08:56;29.80;45.30
27779;DHT22;30234;48.090;11.464;2022-07-06T15:12:57;29.70;45.20
27779;DHT22;30234;48.090;11.464;2022-07-06T15:16:57;29.70;44.90
27779;DHT22;30234;48.090;11.464;2022-07-06T15:21:05;29.80;45.40
27779;DHT22;30234;48.090;11.464;2022-07-06T15:25:06;29.70;44.90
27779;DHT22;30234;48.090;11.464;2022-07-06T15:29:11;29.30;45.40
27779;DHT22;30234;48.090;11.464;2022-07-06T15:33:18;29.10;45.30
27779;DHT22;30234;48.090;11.464;2022-07-06T15:37:19;28.70;45.30
27779;DHT22;30234;48.090;11.464;2022-07-06T15:41:22;28.70;45.40
27779;DHT22;30234;48.090;11.464;2022-07-06T15:50:42;28.90;46.80
27779;DHT22;30234;48.090;11.464;2022-07-06T16:00:01;29.20;44.90
27779;DHT22;30234;48.090;11.464;2022-07-06T16:04:05;28.50;45.70
27779;DHT22;30234;48.090;11.464;2022-07-06T16:08:09;28.90;45.60
27779;DHT22;30234;48.090;11.464;2022-07-06T16:12:50;28.80;45.60
27779;DHT22;30234;48.090;11.464;2022-07-06T16:21:22;27.70;46.90
27779;DHT22;30234;48.090;11.464;2022-07-06T16:25:23;26.80;48.50
27779;DHT22;30234;48.090;11.464;2022-07-06T16:29:33;26.70;48.90
27779;DHT22;30234;48.090;11.464;2022-07-06T16:33:34;27.30;48.60
27779;DHT22;30234;48.090;11.464;2022-07-06T16:37:35;27.90;47.50
27779;DHT22;30234;48.090;11.464;2022-07-06T16:41:49;27.20;48.40
27779;DHT22;30234;48.090;11.464;2022-07-06T16:45:51;26.70;49.30
27779;DHT22;30234;48.090;11.464;2022-07-06T16:49:52;26.40;49.70
27779;DHT22;30234;48.090;11.464;2022-07-06T16:58:26;26.20;50.20
27779;DHT22;30234;48.090;11.464;2022-07-06T17:02:26;26.10;50.50
27779;DHT22;30234;48.090;11.464;2022-07-06T17:06:27;25.90;51.00
27779;DHT22;30234;48.090;11.464;2022-07-06T17:10:28;25.90;50.80
27779;DHT22;30234;48.090;11.464;2022-07-06T17:14:29;25.60;51.60
27779;DHT22;30234;48.090;11.464;2022-07-06T17:18:30;25.60;51.70
27779;DHT22;30234;48.090;11.464;2022-07-06T17:22:31;25.40;51.70
27779;DHT22;30234;48.090;11.464;2022-07-06T17:26:32;25.00;52.90
27779;DHT22;30234;48.090;11.464;2022-07-06T17:30:33;24.80;53.30
27779;DHT22;30234;48.090;11.464;2022-07-06T17:34:36;24.60;53.90
27779;DHT22;30234;48.090;11.464;2022-07-06T17:38:37;24.40;54.10
27779;DHT22;30234;48.090;11.464;2022-07-06T17:42:38;24.20;55.30
27779;DHT22;30234;48.090;11.464;2022-07-06T17:46:38;23.80;55.00
27779;DHT22;30234;48.090;11.464;2022-07-06T17:50:39;23.40;55.90
27779;DHT22;30234;48.090;11.464;2022-07-06T17:54:44;23.30;56.60
27779;DHT22;30234;48.090;11.464;2022-07-06T17:58:45;23.00;56.80
27779;DHT22;30234;48.090;11.464;2022-07-06T18:02:46;22.90;57.10
27779;DHT22;30234;48.090;11.464;2022-07-06T18:06:47;22.70;58.30
27779;DHT22;30234;48.090;11.464;2022-07-06T18:10:48;22.40;59.10
27779;DHT22;30234;48.090;11.464;2022-07-06T18:14:49;22.10;59.40
27779;DHT22;30234;48.090;11.464;2022-07-06T18:18:50;21.90;59.90
27779;DHT22;30234;48.090;11.464;2022-07-06T18:22:50;21.80;60.30
27779;DHT22;30234;48.090;11.464;2022-07-06T18:26:51;21.60;61.70
27779;DHT22;30234;48.090;11.464;2022-07-06T18:30:52;21.40;61.40
27779;DHT22;30234;48.090;11.464;2022-07-06T18:34:53;21.30;61.50
27779;DHT22;30234;48.090;11.464;2022-07-06T18:38:55;21.20;62.00
27779;DHT22;30234;48.090;11.464;2022-07-06T18:42:56;21.10;62.60
27779;DHT22;30234;48.090;11.464;2022-07-06T18:46:57;20.90;63.30
27779;DHT22;30234;48.090;11.464;2022-07-06T18:50:58;20.80;63.90
27779;DHT22;30234;48.090;11.464;2022-07-06T18:55:02;20.70;64.60
27779;DHT22;30234;48.090;11.464;2022-07-06T18:59:06;20.60;65.60
27779;DHT22;30234;48.090;11.464;2022-07-06T19:03:10;20.40;66.30
27779;DHT22;30234;48.090;11.464;2022-07-06T19:07:10;20.30;67.00
27779;DHT22;30234;48.090;11.464;2022-07-06T19:11:12;20.30;66.40
27779;DHT22;30234;48.090;11.464;2022-07-06T19:15:13;20.20;66.90
27779;DHT22;30234;48.090;11.464;2022-07-06T19:19:14;20.20;67.10
27779;DHT22;30234;48.090;11.464;2022-07-06T19:23:15;20.00;68.00
27779;DHT22;30234;48.090;11.464;2022-07-06T19:27:18;19.90;68.40
27779;DHT22;30234;48.090;11.464;2022-07-06T19:31:19;19.80;68.90
27779;DHT22;30234;48.090;11.464;2022-07-06T19:35:20;19.70;69.10
27779;DHT22;30234;48.090;11.464;2022-07-06T19:39:20;19.70;69.40
27779;DHT22;30234;48.090;11.464;2022-07-06T19:43:21;19.50;70.30
27779;DHT22;30234;48.090;11.464;2022-07-06T19:47:22;19.20;71.50
27779;DHT22;30234;48.090;11.464;2022-07-06T19:51:23;19.00;72.50
27779;DHT22;30234;48.090;11.464;2022-07-06T19:55:24;18.80;73.40
27779;DHT22;30234;48.090;11.464;2022-07-06T19:59:24;18.70;74.20
27779;DHT22;30234;48.090;11.464;2022-07-06T20:03:25;18.80;74.00
27779;DHT22;30234;48.090;11.464;2022-07-06T20:07:26;18.90;74.00
27779;DHT22;30234;48.090;11.464;2022-07-06T20:11:27;18.80;74.50
27779;DHT22;30234;48.090;11.464;2022-07-06T20:15:28;18.60;75.70
27779;DHT22;30234;48.090;11.464;2022-07-06T20:19:29;18.40;76.70
27779;DHT22;30234;48.090;11.464;2022-07-06T20:23:32;18.30;77.50
27779;DHT22;30234;48.090;11.464;2022-07-06T20:27:33;18.30;78.50
27779;DHT22;30234;48.090;11.464;2022-07-06T20:31:35;18.30;79.00
27779;DHT22;30234;48.090;11.464;2022-07-06T20:35:36;18.20;79.80
27779;DHT22;30234;48.090;11.464;2022-07-06T20:39:37;18.10;80.70
27779;DHT22;30234;48.090;11.464;2022-07-06T20:43:38;18.00;81.70
27779;DHT22;30234;48.090;11.464;2022-07-06T20:47:38;17.90;82.80
27779;DHT22;30234;48.090;11.464;2022-07-06T20:51:39;17.90;83.80
27779;DHT22;30234;48.090;11.464;2022-07-06T20:55:40;18.00;84.30
27779;DHT22;30234;48.090;11.464;2022-07-06T20:59:41;17.90;87.70
27779;DHT22;30234;48.090;11.464;2022-07-06T21:03:42;17.90;88.00
27779;DHT22;30234;48.090;11.464;2022-07-06T21:07:43;18.00;88.40
27779;DHT22;30234;48.090;11.464;2022-07-06T21:11:43;18.20;88.60
27779;DHT22;30234;48.090;11.464;2022-07-06T21:15:44;18.30;88.90
27779;DHT22;30234;48.090;11.464;2022-07-06T21:19:45;18.30;89.20
27779;DHT22;30234;48.090;11.464;2022-07-06T21:23:46;18.30;89.80
27779;DHT22;30234;48.090;11.464;2022-07-06T21:27:47;18.20;90.30
27779;DHT22;30234;48.090;11.464;2022-07-06T21:31:47;18.30;90.60
27779;DHT22;30234;48.090;11.464;2022-07-06T21:35:49;18.20;91.30
27779;DHT22;30234;48.090;11.464;2022-07-06T21:39:50;18.20;92.00
27779;DHT22;30234;48.090;11.464;2022-07-06T21:43:52;18.10;92.50
27779;DHT22;30234;48.090;11.464;2022-07-06T21:47:53;17.90;93.40
27779;DHT22;30234;48.090;11.464;2022-07-06T21:51:53;17.70;95.00
27779;DHT22;30234;48.090;11.464;2022-07-06T21:55:54;17.60;96.20
27779;DHT22;30234;48.090;11.464;2022-07-06T21:59:55;17.50;97.80
27779;DHT22;30234;48.090;11.464;2022-07-06T22:03:56;17.50;99.30
27779;DHT22;30234;48.090;11.464;2022-07-06T22:07:56;17.50;99.90
27779;DHT22;30234;48.090;11.464;2022-07-06T22:11:58;17.50;99.90
27779;DHT22;30234;48.090;11.464;2022-07-06T22:15:59;17.60;99.90
27779;DHT22;30234;48.090;11.464;2022-07-06T22:20:00;17.70;99.90
27779;DHT22;30234;48.090;11.464;2022-07-06T22:24:01;17.70;99.90
27779;DHT22;30234;48.090;11.464;2022-07-06T22:28:01;17.70;99.90
27779;DHT22;30234;48.090;11.464;2022-07-06T22:32:02;17.50;99.90
27779;DHT22;30234;48.090;11.464;2022-07-06T22:36:04;17.40;99.90
27779;DHT22;30234;48.090;11.464;2022-07-06T22:40:06;17.30;99.90
27779;DHT22;30234;48.090;11.464;2022-07-06T22:44:25;17.30;99.90
27779;DHT22;30234;48.090;11.464;2022-07-06T22:48:27;17.30;99.90
27779;DHT22;30234;48.090;11.464;2022-07-06T22:52:28;17.20;99.90
27779;DHT22;30234;48.090;11.464;2022-07-06T22:56:29;17.10;99.90
27779;DHT22;30234;48.090;11.464;2022-07-06T23:00:30;17.00;99.90
27779;DHT22;30234;48.090;11.464;2022-07-06T23:04:31;16.90;99.90
27779;DHT22;30234;48.090;11.464;2022-07-06T23:08:31;16.80;99.90
27779;DHT22;30234;48.090;11.464;2022-07-06T23:12:32;16.80;99.50
27779;DHT22;30234;48.090;11.464;2022-07-06T23:16:33;16.80;99.40
27779;DHT22;30234;48.090;11.464;2022-07-06T23:20:34;16.80;99.30
27779;DHT22;30234;48.090;11.464;2022-07-06T23:24:34;16.80;99.20
27779;DHT22;30234;48.090;11.464;2022-07-06T23:28:35;16.80;99.10
27779;DHT22;30234;48.090;11.464;2022-07-06T23:32:36;17.00;99.30
27779;DHT22;30234;48.090;11.464;2022-07-06T23:36:37;16.90;99.60
27779;DHT22;30234;48.090;11.464;2022-07-06T23:40:37;16.80;99.30
27779;DHT22;30234;48.090;11.464;2022-07-06T23:44:38;16.70;99.50
27779;DHT22;30234;48.090;11.464;2022-07-06T23:48:39;16.70;99.50
27779;DHT22;30234;48.090;11.464;2022-07-06T23:52:40;16.70;99.70
27779;DHT22;30234;48.090;11.464;2022-07-06T23:56:40;16.60;99.80
